sensor_id;sensor_type;location;lat;lon;timestamp;P1;durP1;ratioP1;P2;durP2;ratioP2
79204;SDS011;68632;47.512;19.104;2023-05-10T00:00:05;5.20;;;4.03;;
79204;SDS011;68632;47.512;19.104;2023-05-10T00:01:08;6.32;;;4.40;;
79204;SDS011;68632;47.512;19.104;2023-05-10T00:02:10;5.38;;;4.05;;
79204;SDS011;68632;47.512;19.104;2023-05-10T00:03:12;7.78;;;4.35;;
79204;SDS011;68632;47.512;19.104;2023-05-10T00:04:14;5.60;;;4.47;;
79204;SDS011;68632;47.512;19.104;2023-05-10T00:05:16;6.03;;;4.43;;
79204;SDS011;68632;47.512;19.104;2023-05-10T00:06:19;8.57;;;4.68;;
79204;SDS011;68632;47.512;19.104;2023-05-10T00:07:22;5.40;;;4.05;;
79204;SDS011;68632;47.512;19.104;2023-05-10T00:08:24;6.65;;;4.63;;
79204;SDS011;68632;47.512;19.104;2023-05-10T00:09:26;6.63;;;3.90;;
79204;SDS011;68632;47.512;19.104;2023-05-10T00:10:28;5.78;;;4.07;;
79204;SDS011;68632;47.512;19.104;2023-05-10T00:11:31;6.82;;;5.53;;
79204;SDS011;68632;47.512;19.104;2023-05-10T00:12:33;8.38;;;4.38;;
79204;SDS011;68632;47.512;19.104;2023-05-10T00:13:35;8.13;;;4.05;;
79204;SDS011;68632;47.512;19.104;2023-05-10T00:14:37;5.47;;;4.10;;
79204;SDS011;68632;47.512;19.104;2023-05-10T00:15:39;6.60;;;4.15;;
79204;SDS011;68632;47.512;19.104;2023-05-10T00:16:41;5.78;;;4.30;;
79204;SDS011;68632;47.512;19.104;2023-05-10T00:17:43;9.07;;;4.45;;
79204;SDS011;68632;47.512;19.104;2023-05-10T00:18:46;6.15;;;4.07;;
79204;SDS011;68632;47.512;19.104;2023-05-10T00:19:48;5.40;;;4.50;;
79204;SDS011;68632;47.512;19.104;2023-05-10T00:20:50;6.35;;;5.05;;
79204;SDS011;68632;47.512;19.104;2023-05-10T00:21:52;5.68;;;4.50;;
79204;SDS011;68632;47.512;19.104;2023-05-10T00:22:54;8.20;;;4.60;;
79204;SDS011;68632;47.512;19.104;2023-05-10T00:23:56;7.70;;;4.70;;
79204;SDS011;68632;47.512;19.104;2023-05-10T00:24:59;6.75;;;4.65;;
79204;SDS011;68632;47.512;19.104;2023-05-10T00:26:01;7.85;;;5.07;;
79204;SDS011;68632;47.512;19.104;2023-05-10T00:27:03;7.43;;;4.72;;
79204;SDS011;68632;47.512;19.104;2023-05-10T00:28:05;6.88;;;4.30;;
79204;SDS011;68632;47.512;19.104;2023-05-10T00:29:07;5.00;;;4.30;;
79204;SDS011;68632;47.512;19.104;2023-05-10T00:30:10;5.43;;;4.13;;
79204;SDS011;68632;47.512;19.104;2023-05-10T00:31:12;5.88;;;5.00;;
79204;SDS011;68632;47.512;19.104;2023-05-10T00:32:14;6.60;;;4.60;;
79204;SDS011;68632;47.512;19.104;2023-05-10T00:33:16;6.72;;;4.57;;
79204;SDS011;68632;47.512;19.104;2023-05-10T00:34:20;7.00;;;4.35;;
79204;SDS011;68632;47.512;19.104;2023-05-10T00:35:22;6.55;;;3.88;;
79204;SDS011;68632;47.512;19.104;2023-05-10T00:36:25;6.80;;;4.45;;
79204;SDS011;68632;47.512;19.104;2023-05-10T00:37:27;5.50;;;3.80;;
79204;SDS011;68632;47.512;19.104;2023-05-10T00:38:29;6.13;;;4.78;;
79204;SDS011;68632;47.512;19.104;2023-05-10T00:39:31;5.53;;;4.43;;
79204;SDS011;68632;47.512;19.104;2023-05-10T00:40:35;5.60;;;4.95;;
79204;SDS011;68632;47.512;19.104;2023-05-10T00:41:37;6.05;;;4.50;;
79204;SDS011;68632;47.512;19.104;2023-05-10T00:42:39;6.03;;;3.83;;
79204;SDS011;68632;47.512;19.104;2023-05-10T00:43:42;6.57;;;4.57;;
79204;SDS011;68632;47.512;19.104;2023-05-10T00:44:44;6.13;;;4.68;;
79204;SDS011;68632;47.512;19.104;2023-05-10T00:45:46;5.45;;;4.53;;
79204;SDS011;68632;47.512;19.104;2023-05-10T00:46:49;5.93;;;5.13;;
79204;SDS011;68632;47.512;19.104;2023-05-10T00:47:51;5.85;;;4.68;;
79204;SDS011;68632;47.512;19.104;2023-05-10T00:48:56;6.05;;;4.38;;
79204;SDS011;68632;47.512;19.104;2023-05-10T00:49:59;7.45;;;4.25;;
79204;SDS011;68632;47.512;19.104;2023-05-10T00:51:02;9.75;;;4.90;;
79204;SDS011;68632;47.512;19.104;2023-05-10T00:52:04;5.75;;;4.65;;
79204;SDS011;68632;47.512;19.104;2023-05-10T00:53:08;5.65;;;4.53;;
79204;SDS011;68632;47.512;19.104;2023-05-10T00:54:13;6.03;;;4.57;;
79204;SDS011;68632;47.512;19.104;2023-05-10T00:55:16;6.60;;;5.10;;
79204;SDS011;68632;47.512;19.104;2023-05-10T00:56:19;6.07;;;4.38;;
79204;SDS011;68632;47.512;19.104;2023-05-10T00:57:24;8.45;;;4.70;;
79204;SDS011;68632;47.512;19.104;2023-05-10T00:58:27;6.20;;;5.05;;
79204;SDS011;68632;47.512;19.104;2023-05-10T00:59:30;6.65;;;5.03;;
79204;SDS011;68632;47.512;19.104;2023-05-10T01:00:32;7.55;;;4.80;;
79204;SDS011;68632;47.512;19.104;2023-05-10T01:01:35;6.65;;;4.85;;
79204;SDS011;68632;47.512;19.104;2023-05-10T01:02:38;8.95;;;5.15;;
79204;SDS011;68632;47.512;19.104;2023-05-10T01:03:40;5.97;;;4.53;;
79204;SDS011;68632;47.512;19.104;2023-05-10T01:04:43;8.27;;;5.05;;
79204;SDS011;68632;47.512;19.104;2023-05-10T01:05:45;5.95;;;5.30;;
79204;SDS011;68632;47.512;19.104;2023-05-10T01:06:47;7.38;;;5.30;;
79204;SDS011;68632;47.512;19.104;2023-05-10T01:07:49;6.32;;;5.22;;
79204;SDS011;68632;47.512;19.104;2023-05-10T01:08:51;7.68;;;4.47;;
79204;SDS011;68632;47.512;19.104;2023-05-10T01:09:54;6.25;;;5.05;;
79204;SDS011;68632;47.512;19.104;2023-05-10T01:10:56;6.72;;;4.82;;
79204;SDS011;68632;47.512;19.104;2023-05-10T01:11:59;6.20;;;4.88;;
79204;SDS011;68632;47.512;19.104;2023-05-10T01:13:01;8.88;;;5.13;;
79204;SDS011;68632;47.512;19.104;2023-05-10T01:14:05;5.70;;;5.10;;
79204;SDS011;68632;47.512;19.104;2023-05-10T01:15:07;5.95;;;4.70;;
79204;SDS011;68632;47.512;19.104;2023-05-10T01:16:12;5.78;;;5.13;;
79204;SDS011;68632;47.512;19.104;2023-05-10T01:17:15;5.68;;;5.03;;
79204;SDS011;68632;47.512;19.104;2023-05-10T01:18:18;9.38;;;5.32;;
79204;SDS011;68632;47.512;19.104;2023-05-10T01:19:22;6.22;;;5.10;;
79204;SDS011;68632;47.512;19.104;2023-05-10T01:20:26;10.35;;;5.72;;
79204;SDS011;68632;47.512;19.104;2023-05-10T01:21:38;6.07;;;4.93;;
79204;SDS011;68632;47.512;19.104;2023-05-10T01:31:15;7.93;;;5.55;;
79204;SDS011;68632;47.512;19.104;2023-05-10T01:33:52;6.05;;;5.07;;
79204;SDS011;68632;47.512;19.104;2023-05-10T01:35:12;7.43;;;5.50;;
79204;SDS011;68632;47.512;19.104;2023-05-10T01:36:23;7.43;;;5.70;;
79204;SDS011;68632;47.512;19.104;2023-05-10T01:40:42;6.15;;;5.30;;
79204;SDS011;68632;47.512;19.104;2023-05-10T01:41:54;6.63;;;5.85;;
79204;SDS011;68632;47.512;19.104;2023-05-10T01:43:01;7.80;;;5.32;;
79204;SDS011;68632;47.512;19.104;2023-05-10T01:47:19;9.43;;;5.90;;
79204;SDS011;68632;47.512;19.104;2023-05-10T01:48:33;7.35;;;5.38;;
79204;SDS011;68632;47.512;19.104;2023-05-10T01:49:37;9.25;;;5.75;;
79204;SDS011;68632;47.512;19.104;2023-05-10T01:50:43;7.20;;;5.13;;
79204;SDS011;68632;47.512;19.104;2023-05-10T01:51:47;6.80;;;5.70;;
79204;SDS011;68632;47.512;19.104;2023-05-10T01:52:53;8.15;;;5.57;;
79204;SDS011;68632;47.512;19.104;2023-05-10T01:54:01;7.47;;;4.95;;
79204;SDS011;68632;47.512;19.104;2023-05-10T01:55:15;7.07;;;6.05;;
79204;SDS011;68632;47.512;19.104;2023-05-10T01:56:19;8.43;;;5.70;;
79204;SDS011;68632;47.512;19.104;2023-05-10T01:57:24;6.90;;;4.65;;
79204;SDS011;68632;47.512;19.104;2023-05-10T01:58:30;6.88;;;5.38;;
79204;SDS011;68632;47.512;19.104;2023-05-10T01:59:34;6.47;;;5.45;;
79204;SDS011;68632;47.512;19.104;2023-05-10T02:00:43;7.13;;;5.07;;
79204;SDS011;68632;47.512;19.104;2023-05-10T02:01:46;8.73;;;5.80;;
79204;SDS011;68632;47.512;19.104;2023-05-10T02:02:49;6.82;;;5.35;;
79204;SDS011;68632;47.512;19.104;2023-05-10T02:03:52;6.28;;;5.10;;
79204;SDS011;68632;47.512;19.104;2023-05-10T02:04:56;8.05;;;5.53;;
79204;SDS011;68632;47.512;19.104;2023-05-10T02:05:58;7.10;;;5.30;;
79204;SDS011;68632;47.512;19.104;2023-05-10T02:07:01;10.15;;;5.65;;
79204;SDS011;68632;47.512;19.104;2023-05-10T02:08:05;7.00;;;5.88;;
79204;SDS011;68632;47.512;19.104;2023-05-10T02:10:11;7.63;;;5.13;;
79204;SDS011;68632;47.512;19.104;2023-05-10T02:11:13;7.03;;;5.32;;
79204;SDS011;68632;47.512;19.104;2023-05-10T02:12:16;7.20;;;5.47;;
79204;SDS011;68632;47.512;19.104;2023-05-10T02:13:19;8.02;;;4.97;;
79204;SDS011;68632;47.512;19.104;2023-05-10T02:14:21;8.82;;;5.43;;
79204;SDS011;68632;47.512;19.104;2023-05-10T02:15:26;7.15;;;5.60;;
79204;SDS011;68632;47.512;19.104;2023-05-10T02:16:28;7.15;;;5.40;;
79204;SDS011;68632;47.512;19.104;2023-05-10T02:17:32;7.35;;;5.57;;
79204;SDS011;68632;47.512;19.104;2023-05-10T02:18:36;7.15;;;5.38;;
79204;SDS011;68632;47.512;19.104;2023-05-10T02:19:39;6.55;;;5.05;;
79204;SDS011;68632;47.512;19.104;2023-05-10T02:20:43;7.60;;;5.03;;
79204;SDS011;68632;47.512;19.104;2023-05-10T02:21:46;7.10;;;6.00;;
79204;SDS011;68632;47.512;19.104;2023-05-10T02:22:49;12.55;;;5.10;;
79204;SDS011;68632;47.512;19.104;2023-05-10T02:23:52;8.20;;;5.22;;
79204;SDS011;68632;47.512;19.104;2023-05-10T02:24:56;6.88;;;4.70;;
79204;SDS011;68632;47.512;19.104;2023-05-10T02:25:59;8.43;;;5.57;;
79204;SDS011;68632;47.512;19.104;2023-05-10T02:27:02;7.30;;;5.13;;
79204;SDS011;68632;47.512;19.104;2023-05-10T02:28:05;6.50;;;5.15;;
79204;SDS011;68632;47.512;19.104;2023-05-10T02:29:08;7.00;;;5.57;;
79204;SDS011;68632;47.512;19.104;2023-05-10T02:30:11;8.95;;;5.75;;
79204;SDS011;68632;47.512;19.104;2023-05-10T02:31:13;7.05;;;5.53;;
79204;SDS011;68632;47.512;19.104;2023-05-10T02:32:16;7.38;;;5.40;;
79204;SDS011;68632;47.512;19.104;2023-05-10T02:33:19;7.05;;;5.75;;
79204;SDS011;68632;47.512;19.104;2023-05-10T02:34:23;7.97;;;5.63;;
79204;SDS011;68632;47.512;19.104;2023-05-10T02:35:27;7.10;;;5.10;;
79204;SDS011;68632;47.512;19.104;2023-05-10T02:36:30;6.32;;;5.47;;
79204;SDS011;68632;47.512;19.104;2023-05-10T02:37:33;6.22;;;5.25;;
79204;SDS011;68632;47.512;19.104;2023-05-10T02:38:36;5.97;;;4.90;;
79204;SDS011;68632;47.512;19.104;2023-05-10T02:39:38;5.72;;;4.80;;
79204;SDS011;68632;47.512;19.104;2023-05-10T02:40:45;8.15;;;5.38;;
79204;SDS011;68632;47.512;19.104;2023-05-10T02:41:48;6.65;;;5.50;;
79204;SDS011;68632;47.512;19.104;2023-05-10T02:42:51;9.05;;;6.32;;
79204;SDS011;68632;47.512;19.104;2023-05-10T02:43:55;6.07;;;5.13;;
79204;SDS011;68632;47.512;19.104;2023-05-10T02:45:00;10.00;;;5.82;;
79204;SDS011;68632;47.512;19.104;2023-05-10T02:46:03;7.53;;;4.75;;
79204;SDS011;68632;47.512;19.104;2023-05-10T02:47:05;6.50;;;5.60;;
79204;SDS011;68632;47.512;19.104;2023-05-10T02:48:07;6.45;;;5.05;;
79204;SDS011;68632;47.512;19.104;2023-05-10T02:49:09;6.78;;;4.90;;
79204;SDS011;68632;47.512;19.104;2023-05-10T02:50:12;6.78;;;5.15;;
79204;SDS011;68632;47.512;19.104;2023-05-10T02:51:14;6.82;;;5.90;;
79204;SDS011;68632;47.512;19.104;2023-05-10T02:52:21;6.00;;;5.25;;
79204;SDS011;68632;47.512;19.104;2023-05-10T02:53:30;6.80;;;5.07;;
79204;SDS011;68632;47.512;19.104;2023-05-10T02:54:34;6.30;;;5.45;;
79204;SDS011;68632;47.512;19.104;2023-05-10T02:55:41;6.97;;;5.25;;
79204;SDS011;68632;47.512;19.104;2023-05-10T02:56:52;6.47;;;5.25;;
79204;SDS011;68632;47.512;19.104;2023-05-10T02:57:59;7.38;;;5.00;;
79204;SDS011;68632;47.512;19.104;2023-05-10T02:59:02;6.47;;;4.65;;
79204;SDS011;68632;47.512;19.104;2023-05-10T03:00:05;7.63;;;5.68;;
79204;SDS011;68632;47.512;19.104;2023-05-10T03:01:07;6.68;;;5.13;;
79204;SDS011;68632;47.512;19.104;2023-05-10T03:02:10;8.38;;;5.20;;
79204;SDS011;68632;47.512;19.104;2023-05-10T03:03:14;6.93;;;5.63;;
79204;SDS011;68632;47.512;19.104;2023-05-10T03:04:16;7.28;;;4.90;;
79204;SDS011;68632;47.512;19.104;2023-05-10T03:05:18;6.40;;;5.10;;
79204;SDS011;68632;47.512;19.104;2023-05-10T03:06:21;6.53;;;5.53;;
79204;SDS011;68632;47.512;19.104;2023-05-10T03:07:23;7.25;;;5.43;;
79204;SDS011;68632;47.512;19.104;2023-05-10T03:08:25;6.10;;;5.25;;
79204;SDS011;68632;47.512;19.104;2023-05-10T03:09:28;8.88;;;5.60;;
79204;SDS011;68632;47.512;19.104;2023-05-10T03:10:30;7.38;;;5.68;;
79204;SDS011;68632;47.512;19.104;2023-05-10T03:15:56;7.25;;;5.55;;
79204;SDS011;68632;47.512;19.104;2023-05-10T03:17:10;7.90;;;5.55;;
79204;SDS011;68632;47.512;19.104;2023-05-10T03:18:18;9.13;;;5.15;;
79204;SDS011;68632;47.512;19.104;2023-05-10T03:19:26;8.27;;;5.68;;
79204;SDS011;68632;47.512;19.104;2023-05-10T03:20:54;7.55;;;6.57;;
79204;SDS011;68632;47.512;19.104;2023-05-10T03:21:53;8.07;;;5.68;;
79204;SDS011;68632;47.512;19.104;2023-05-10T03:23:00;7.55;;;5.53;;
79204;SDS011;68632;47.512;19.104;2023-05-10T03:24:07;7.90;;;6.13;;
79204;SDS011;68632;47.512;19.104;2023-05-10T03:25:10;8.07;;;5.03;;
79204;SDS011;68632;47.512;19.104;2023-05-10T03:26:15;5.32;;;4.45;;
79204;SDS011;68632;47.512;19.104;2023-05-10T03:27:20;8.52;;;5.20;;
79204;SDS011;68632;47.512;19.104;2023-05-10T03:28:23;6.68;;;5.43;;
79204;SDS011;68632;47.512;19.104;2023-05-10T03:29:26;8.35;;;6.28;;
79204;SDS011;68632;47.512;19.104;2023-05-10T03:30:29;10.45;;;5.72;;
79204;SDS011;68632;47.512;19.104;2023-05-10T03:31:32;8.40;;;5.60;;
79204;SDS011;68632;47.512;19.104;2023-05-10T03:32:34;7.20;;;5.75;;
79204;SDS011;68632;47.512;19.104;2023-05-10T03:33:45;8.63;;;6.00;;
79204;SDS011;68632;47.512;19.104;2023-05-10T03:34:50;10.73;;;6.07;;
79204;SDS011;68632;47.512;19.104;2023-05-10T03:35:52;7.10;;;5.68;;
79204;SDS011;68632;47.512;19.104;2023-05-10T03:36:55;7.85;;;6.22;;
79204;SDS011;68632;47.512;19.104;2023-05-10T03:37:57;7.85;;;7.05;;
79204;SDS011;68632;47.512;19.104;2023-05-10T03:38:59;7.85;;;5.85;;
79204;SDS011;68632;47.512;19.104;2023-05-10T03:40:01;7.03;;;5.72;;
79204;SDS011;68632;47.512;19.104;2023-05-10T03:41:04;7.70;;;6.28;;
79204;SDS011;68632;47.512;19.104;2023-05-10T03:42:06;7.53;;;6.38;;
79204;SDS011;68632;47.512;19.104;2023-05-10T03:43:08;9.40;;;5.80;;
79204;SDS011;68632;47.512;19.104;2023-05-10T03:44:10;7.20;;;6.35;;
79204;SDS011;68632;47.512;19.104;2023-05-10T03:45:12;6.97;;;5.85;;
79204;SDS011;68632;47.512;19.104;2023-05-10T03:46:15;5.60;;;5.07;;
79204;SDS011;68632;47.512;19.104;2023-05-10T03:47:17;6.93;;;5.63;;
79204;SDS011;68632;47.512;19.104;2023-05-10T03:48:19;14.57;;;6.63;;
79204;SDS011;68632;47.512;19.104;2023-05-10T03:49:21;6.07;;;5.30;;
79204;SDS011;68632;47.512;19.104;2023-05-10T03:50:23;6.10;;;5.50;;
79204;SDS011;68632;47.512;19.104;2023-05-10T03:51:26;6.95;;;5.97;;
79204;SDS011;68632;47.512;19.104;2023-05-10T03:52:29;7.05;;;5.32;;
79204;SDS011;68632;47.512;19.104;2023-05-10T03:53:31;6.22;;;5.28;;
79204;SDS011;68632;47.512;19.104;2023-05-10T03:54:34;8.65;;;5.40;;
79204;SDS011;68632;47.512;19.104;2023-05-10T03:55:36;8.02;;;5.53;;
79204;SDS011;68632;47.512;19.104;2023-05-10T03:56:38;7.30;;;5.65;;
79204;SDS011;68632;47.512;19.104;2023-05-10T03:57:40;7.60;;;5.68;;
79204;SDS011;68632;47.512;19.104;2023-05-10T03:58:42;6.57;;;5.50;;
79204;SDS011;68632;47.512;19.104;2023-05-10T03:59:44;7.80;;;6.15;;
79204;SDS011;68632;47.512;19.104;2023-05-10T04:00:47;8.43;;;6.03;;
79204;SDS011;68632;47.512;19.104;2023-05-10T04:01:49;6.75;;;5.85;;
79204;SDS011;68632;47.512;19.104;2023-05-10T04:02:51;7.65;;;6.78;;
79204;SDS011;68632;47.512;19.104;2023-05-10T04:03:53;8.85;;;5.88;;
79204;SDS011;68632;47.512;19.104;2023-05-10T04:04:56;7.30;;;5.30;;
79204;SDS011;68632;47.512;19.104;2023-05-10T04:05:59;5.93;;;5.22;;
79204;SDS011;68632;47.512;19.104;2023-05-10T04:07:02;8.57;;;6.00;;
79204;SDS011;68632;47.512;19.104;2023-05-10T04:08:05;11.13;;;5.72;;
79204;SDS011;68632;47.512;19.104;2023-05-10T04:09:07;10.10;;;6.30;;
79204;SDS011;68632;47.512;19.104;2023-05-10T04:10:10;7.20;;;5.97;;
79204;SDS011;68632;47.512;19.104;2023-05-10T04:11:12;6.45;;;4.80;;
79204;SDS011;68632;47.512;19.104;2023-05-10T04:12:15;7.22;;;5.43;;
79204;SDS011;68632;47.512;19.104;2023-05-10T04:13:18;9.10;;;6.10;;
79204;SDS011;68632;47.512;19.104;2023-05-10T04:14:20;7.45;;;6.18;;
79204;SDS011;68632;47.512;19.104;2023-05-10T04:15:22;7.88;;;6.18;;
79204;SDS011;68632;47.512;19.104;2023-05-10T04:16:25;7.95;;;5.57;;
79204;SDS011;68632;47.512;19.104;2023-05-10T04:17:27;6.72;;;6.05;;
79204;SDS011;68632;47.512;19.104;2023-05-10T04:18:29;8.10;;;6.50;;
79204;SDS011;68632;47.512;19.104;2023-05-10T04:19:32;8.00;;;6.20;;
79204;SDS011;68632;47.512;19.104;2023-05-10T04:20:34;10.52;;;6.68;;
79204;SDS011;68632;47.512;19.104;2023-05-10T04:21:36;7.85;;;6.00;;
79204;SDS011;68632;47.512;19.104;2023-05-10T04:22:38;9.18;;;6.55;;
79204;SDS011;68632;47.512;19.104;2023-05-10T04:23:41;6.93;;;5.90;;
79204;SDS011;68632;47.512;19.104;2023-05-10T04:24:43;7.20;;;5.35;;
79204;SDS011;68632;47.512;19.104;2023-05-10T04:25:45;7.35;;;6.13;;
79204;SDS011;68632;47.512;19.104;2023-05-10T04:26:47;8.48;;;6.20;;
79204;SDS011;68632;47.512;19.104;2023-05-10T04:27:49;10.27;;;7.13;;
79204;SDS011;68632;47.512;19.104;2023-05-10T04:28:52;8.43;;;6.15;;
79204;SDS011;68632;47.512;19.104;2023-05-10T04:29:54;7.22;;;6.45;;
79204;SDS011;68632;47.512;19.104;2023-05-10T04:31:02;8.10;;;6.05;;
79204;SDS011;68632;47.512;19.104;2023-05-10T04:32:08;7.57;;;6.00;;
79204;SDS011;68632;47.512;19.104;2023-05-10T04:33:11;6.82;;;5.85;;
79204;SDS011;68632;47.512;19.104;2023-05-10T04:34:14;9.30;;;7.05;;
79204;SDS011;68632;47.512;19.104;2023-05-10T04:35:16;6.85;;;5.85;;
79204;SDS011;68632;47.512;19.104;2023-05-10T04:36:18;7.05;;;5.53;;
79204;SDS011;68632;47.512;19.104;2023-05-10T04:37:20;9.10;;;7.25;;
79204;SDS011;68632;47.512;19.104;2023-05-10T04:38:24;8.70;;;6.00;;
79204;SDS011;68632;47.512;19.104;2023-05-10T04:39:26;12.65;;;7.28;;
79204;SDS011;68632;47.512;19.104;2023-05-10T04:40:29;8.35;;;6.10;;
79204;SDS011;68632;47.512;19.104;2023-05-10T04:41:31;8.63;;;6.57;;
79204;SDS011;68632;47.512;19.104;2023-05-10T04:42:33;7.93;;;6.15;;
79204;SDS011;68632;47.512;19.104;2023-05-10T04:43:35;9.15;;;6.82;;
79204;SDS011;68632;47.512;19.104;2023-05-10T04:44:38;8.95;;;7.20;;
79204;SDS011;68632;47.512;19.104;2023-05-10T04:45:40;12.07;;;7.05;;
79204;SDS011;68632;47.512;19.104;2023-05-10T04:46:42;8.98;;;6.85;;
79204;SDS011;68632;47.512;19.104;2023-05-10T04:47:44;7.70;;;6.18;;
79204;SDS011;68632;47.512;19.104;2023-05-10T04:48:47;10.95;;;6.70;;
79204;SDS011;68632;47.512;19.104;2023-05-10T04:49:49;8.27;;;6.35;;
79204;SDS011;68632;47.512;19.104;2023-05-10T04:50:51;7.85;;;6.47;;
79204;SDS011;68632;47.512;19.104;2023-05-10T04:51:53;7.85;;;6.88;;
79204;SDS011;68632;47.512;19.104;2023-05-10T04:52:55;8.43;;;6.65;;
79204;SDS011;68632;47.512;19.104;2023-05-10T04:53:57;8.35;;;6.93;;
79204;SDS011;68632;47.512;19.104;2023-05-10T04:55:07;10.95;;;6.90;;
79204;SDS011;68632;47.512;19.104;2023-05-10T04:56:11;8.30;;;6.40;;
79204;SDS011;68632;47.512;19.104;2023-05-10T04:57:13;8.15;;;6.80;;
79204;SDS011;68632;47.512;19.104;2023-05-10T04:58:15;7.15;;;5.97;;
79204;SDS011;68632;47.512;19.104;2023-05-10T04:59:17;7.82;;;6.47;;
79204;SDS011;68632;47.512;19.104;2023-05-10T05:00:19;9.75;;;7.32;;
79204;SDS011;68632;47.512;19.104;2023-05-10T05:01:22;9.45;;;6.88;;
79204;SDS011;68632;47.512;19.104;2023-05-10T05:02:25;10.55;;;6.65;;
79204;SDS011;68632;47.512;19.104;2023-05-10T05:03:27;8.70;;;6.97;;
79204;SDS011;68632;47.512;19.104;2023-05-10T05:04:29;9.88;;;7.10;;
79204;SDS011;68632;47.512;19.104;2023-05-10T05:05:32;9.52;;;6.95;;
79204;SDS011;68632;47.512;19.104;2023-05-10T05:06:34;9.13;;;7.05;;
79204;SDS011;68632;47.512;19.104;2023-05-10T05:07:37;10.27;;;7.22;;
79204;SDS011;68632;47.512;19.104;2023-05-10T05:08:40;11.90;;;7.05;;
79204;SDS011;68632;47.512;19.104;2023-05-10T05:09:42;9.40;;;6.60;;
79204;SDS011;68632;47.512;19.104;2023-05-10T05:10:44;7.10;;;6.30;;
79204;SDS011;68632;47.512;19.104;2023-05-10T05:11:46;7.97;;;6.47;;
79204;SDS011;68632;47.512;19.104;2023-05-10T05:12:48;9.45;;;6.65;;
79204;SDS011;68632;47.512;19.104;2023-05-10T05:13:51;8.00;;;6.10;;
79204;SDS011;68632;47.512;19.104;2023-05-10T05:14:53;9.30;;;7.30;;
79204;SDS011;68632;47.512;19.104;2023-05-10T05:15:55;9.10;;;7.03;;
79204;SDS011;68632;47.512;19.104;2023-05-10T05:16:57;9.30;;;7.05;;
79204;SDS011;68632;47.512;19.104;2023-05-10T05:18:00;7.28;;;6.47;;
79204;SDS011;68632;47.512;19.104;2023-05-10T05:19:02;8.80;;;6.90;;
79204;SDS011;68632;47.512;19.104;2023-05-10T05:20:04;10.90;;;7.13;;
79204;SDS011;68632;47.512;19.104;2023-05-10T05:21:14;8.18;;;6.38;;
79204;SDS011;68632;47.512;19.104;2023-05-10T05:22:17;8.15;;;5.72;;
79204;SDS011;68632;47.512;19.104;2023-05-10T05:23:21;8.85;;;6.93;;
79204;SDS011;68632;47.512;19.104;2023-05-10T05:24:26;10.35;;;7.03;;
79204;SDS011;68632;47.512;19.104;2023-05-10T05:25:28;10.63;;;8.15;;
79204;SDS011;68632;47.512;19.104;2023-05-10T05:26:30;9.75;;;7.47;;
79204;SDS011;68632;47.512;19.104;2023-05-10T05:27:32;9.70;;;7.80;;
79204;SDS011;68632;47.512;19.104;2023-05-10T05:28:35;8.57;;;7.65;;
79204;SDS011;68632;47.512;19.104;2023-05-10T05:29:38;9.82;;;6.97;;
79204;SDS011;68632;47.512;19.104;2023-05-10T05:30:41;11.35;;;7.63;;
79204;SDS011;68632;47.512;19.104;2023-05-10T05:31:43;8.18;;;6.80;;
79204;SDS011;68632;47.512;19.104;2023-05-10T05:32:45;11.35;;;7.05;;
79204;SDS011;68632;47.512;19.104;2023-05-10T05:33:49;12.15;;;8.23;;
79204;SDS011;68632;47.512;19.104;2023-05-10T05:34:51;8.73;;;7.35;;
79204;SDS011;68632;47.512;19.104;2023-05-10T05:35:53;9.00;;;7.72;;
79204;SDS011;68632;47.512;19.104;2023-05-10T05:36:55;9.45;;;6.35;;
79204;SDS011;68632;47.512;19.104;2023-05-10T05:37:57;14.43;;;8.30;;
79204;SDS011;68632;47.512;19.104;2023-05-10T05:38:59;12.45;;;8.82;;
79204;SDS011;68632;47.512;19.104;2023-05-10T05:40:01;10.05;;;7.25;;
79204;SDS011;68632;47.512;19.104;2023-05-10T05:41:04;9.85;;;7.55;;
79204;SDS011;68632;47.512;19.104;2023-05-10T05:42:06;9.90;;;7.20;;
79204;SDS011;68632;47.512;19.104;2023-05-10T05:43:08;8.65;;;6.93;;
79204;SDS011;68632;47.512;19.104;2023-05-10T05:44:10;7.90;;;6.78;;
79204;SDS011;68632;47.512;19.104;2023-05-10T05:45:12;9.10;;;6.95;;
79204;SDS011;68632;47.512;19.104;2023-05-10T05:46:15;9.55;;;7.47;;
79204;SDS011;68632;47.512;19.104;2023-05-10T05:47:17;9.30;;;6.43;;
79204;SDS011;68632;47.512;19.104;2023-05-10T05:48:20;8.55;;;6.93;;
79204;SDS011;68632;47.512;19.104;2023-05-10T05:49:22;8.85;;;6.88;;
79204;SDS011;68632;47.512;19.104;2023-05-10T05:50:24;7.25;;;6.55;;
79204;SDS011;68632;47.512;19.104;2023-05-10T05:51:26;11.57;;;7.20;;
79204;SDS011;68632;47.512;19.104;2023-05-10T05:52:29;8.95;;;6.35;;
79204;SDS011;68632;47.512;19.104;2023-05-10T05:53:32;7.53;;;6.60;;
79204;SDS011;68632;47.512;19.104;2023-05-10T05:54:34;8.65;;;6.78;;
79204;SDS011;68632;47.512;19.104;2023-05-10T05:55:36;11.27;;;6.43;;
79204;SDS011;68632;47.512;19.104;2023-05-10T05:56:38;9.25;;;6.63;;
79204;SDS011;68632;47.512;19.104;2023-05-10T05:57:40;9.98;;;6.75;;
79204;SDS011;68632;47.512;19.104;2023-05-10T05:58:43;10.35;;;7.25;;
79204;SDS011;68632;47.512;19.104;2023-05-10T05:59:46;8.13;;;6.65;;
79204;SDS011;68632;47.512;19.104;2023-05-10T06:00:48;8.80;;;6.95;;
79204;SDS011;68632;47.512;19.104;2023-05-10T06:01:50;9.15;;;7.55;;
79204;SDS011;68632;47.512;19.104;2023-05-10T06:02:52;10.98;;;7.22;;
79204;SDS011;68632;47.512;19.104;2023-05-10T06:03:55;9.52;;;7.25;;
79204;SDS011;68632;47.512;19.104;2023-05-10T06:04:57;10.30;;;6.78;;
79204;SDS011;68632;47.512;19.104;2023-05-10T06:05:59;7.85;;;7.13;;
79204;SDS011;68632;47.512;19.104;2023-05-10T06:07:01;10.57;;;7.20;;
79204;SDS011;68632;47.512;19.104;2023-05-10T06:08:03;10.13;;;6.55;;
79204;SDS011;68632;47.512;19.104;2023-05-10T06:09:06;12.68;;;6.90;;
79204;SDS011;68632;47.512;19.104;2023-05-10T06:10:08;11.70;;;7.57;;
79204;SDS011;68632;47.512;19.104;2023-05-10T06:11:11;9.68;;;7.07;;
79204;SDS011;68632;47.512;19.104;2023-05-10T06:12:13;14.45;;;8.00;;
79204;SDS011;68632;47.512;19.104;2023-05-10T06:13:15;14.60;;;7.45;;
79204;SDS011;68632;47.512;19.104;2023-05-10T06:14:17;7.18;;;6.13;;
79204;SDS011;68632;47.512;19.104;2023-05-10T06:15:22;10.90;;;7.40;;
79204;SDS011;68632;47.512;19.104;2023-05-10T06:16:24;10.60;;;7.10;;
79204;SDS011;68632;47.512;19.104;2023-05-10T06:17:26;8.40;;;6.53;;
79204;SDS011;68632;47.512;19.104;2023-05-10T06:18:29;10.98;;;6.70;;
79204;SDS011;68632;47.512;19.104;2023-05-10T06:19:31;7.97;;;6.90;;
79204;SDS011;68632;47.512;19.104;2023-05-10T06:20:33;8.10;;;6.40;;
79204;SDS011;68632;47.512;19.104;2023-05-10T06:21:35;12.25;;;7.15;;
79204;SDS011;68632;47.512;19.104;2023-05-10T06:22:38;8.68;;;6.25;;
79204;SDS011;68632;47.512;19.104;2023-05-10T06:23:40;9.18;;;6.93;;
79204;SDS011;68632;47.512;19.104;2023-05-10T06:24:42;8.70;;;7.03;;
79204;SDS011;68632;47.512;19.104;2023-05-10T06:25:45;9.18;;;6.78;;
79204;SDS011;68632;47.512;19.104;2023-05-10T06:26:47;10.40;;;7.82;;
79204;SDS011;68632;47.512;19.104;2023-05-10T06:27:51;8.18;;;6.88;;
79204;SDS011;68632;47.512;19.104;2023-05-10T06:28:58;9.45;;;7.03;;
79204;SDS011;68632;47.512;19.104;2023-05-10T06:30:01;12.82;;;7.45;;
79204;SDS011;68632;47.512;19.104;2023-05-10T06:31:14;8.95;;;6.43;;
79204;SDS011;68632;47.512;19.104;2023-05-10T06:32:16;8.77;;;6.07;;
79204;SDS011;68632;47.512;19.104;2023-05-10T06:33:18;10.85;;;6.82;;
79204;SDS011;68632;47.512;19.104;2023-05-10T06:34:21;10.88;;;7.15;;
79204;SDS011;68632;47.512;19.104;2023-05-10T06:35:23;9.65;;;6.88;;
79204;SDS011;68632;47.512;19.104;2023-05-10T06:36:25;10.32;;;6.90;;